Bridgman, Michigan
Current Conditions -  °F | °C
As of 1:53 PM on Tuesday 21 Oct 2014 (Local Time) from KBEH Reporting Station
Overcast Overcast  
Wind Chill: 47°   Ceiling: 2500
Heat Index: 49°   Visibility: 10mi
Dew Point: 41°   Wind: 5mph
Humidity: 74%   Direction: NA
Pressure: 30.13"   Gusts: NA
Location:  41.94°N, 86.56°W
Report Text: KBEH 211753Z AUTO VRB04KT 10SM BKN025 OVC030 09/05 A3013 RMK AO2 SLP207 60008 T00940050 10117 20083 51011
Loading
Personal Weather Stations






























Interactive Weather Map
Tropical Storm Tracking
New forecast layout! Learn more

10-Day Weather Forecast

Advertisements
Track Severe Weather on mobile